ORMM/BSR METAR and TAF weather

Enter ICAO airport designator
Station Type Date Time Source
ORMM METAR 2020/01/19 23:00 UTC NOAA

ORMM 192300Z 31006KT 7000 NSC 11/08 Q1020 NOSIG


Station Type Date Time Source
ORMM Decoded METAR 2020/01/19 23:00 UTC NOAA

Station name not available
Jan 19, 2020 - 06:00 PM EST / 2020.01.19 2300 UTC
Wind: from the NW (310 degrees) at 7 MPH (6 KT):0
Visibility: 4 mile(s):0
Temperature: 51 F (11 C)
Dew Point: 46 F (8 C)
Relative Humidity: 81%
Pressure (altimeter): 30.12 in. Hg (1020 hPa)
ob: ORMM 192300Z 31006KT 7000 NSC 11/08 Q1020 NOSIG
cycle: 23

Station Type Date Time Source
ORMM TAF 2020/01/19 18:48 UTC NOAA

TAF ORMM 191600Z 1918/2018 VRB04KT 8000 NSC
TEMPO 2002/2005 5000

Example: see airport list